SBPG/PNG METAR and TAF weather

Enter ICAO airport designator
Station Type Date Time Source
SBPG METAR 2021/08/04 20:00 UTC NOAA

SBPG 042000Z 11011KT 9999 SCT045 17/09 Q1027


Station Type Date Time Source
SBPG Decoded METAR 2021/08/04 20:00 UTC NOAA

Paranagua, Brazil (SBPG) 25-31S 048-31W
Aug 04, 2021 - 04:00 PM EDT / 2021.08.04 2000 UTC
Wind: from the ESE (110 degrees) at 13 MPH (11 KT):0
Visibility: greater than 7 mile(s):0
Sky conditions: partly cloudy
Temperature: 62 F (17 C)
Dew Point: 48 F (9 C)
Relative Humidity: 59%
Pressure (altimeter): 30.33 in. Hg (1027 hPa)
ob: SBPG 042000Z 11011KT 9999 SCT045 17/09 Q1027
cycle: 20

Station Type Date Time Source
SBPG TAF UTC NOAA

Error!

Example: see airport list